createdAt,value
2023-02-25T00:02:09.471Z,93925.47
2023-02-25T00:04:38.021Z,93946.25
2023-02-25T00:07:06.355Z,93971.22
2023-02-25T00:09:34.744Z,94003.81
2023-02-25T00:12:03.066Z,93986.03
2023-02-25T00:14:31.371Z,93995.91
2023-02-25T00:16:59.856Z,93999.84
2023-02-25T00:19:29.627Z,93995.63
2023-02-25T00:21:58.210Z,93997.25
2023-02-25T00:24:26.545Z,93981.78
2023-02-25T00:26:55.216Z,93990.09
2023-02-25T00:29:23.713Z,93979.63
2023-02-25T00:31:52.141Z,93988.22
2023-02-25T00:34:20.704Z,93974.63
2023-02-25T00:36:51.188Z,93974.44
2023-02-25T00:39:19.522Z,93985.25
2023-02-25T00:41:47.951Z,93960.44
2023-02-25T00:44:16.608Z,93985.00
2023-02-25T00:46:45.579Z,93990.84
2023-02-25T00:49:23.883Z,93985.59
2023-02-25T00:52:01.774Z,93998.56
2023-02-25T00:54:30.342Z,93994.56
2023-02-25T00:56:58.651Z,93861.53
2023-02-25T00:59:27.116Z,93919.53
2023-02-25T01:01:55.763Z,93991.94
2023-02-25T01:04:24.060Z,93995.13
2023-02-25T01:06:54.328Z,94006.28
2023-02-25T01:09:24.187Z,93992.28
2023-02-25T01:11:53.120Z,93987.34
2023-02-25T01:14:23.562Z,93985.00
2023-02-25T01:16:52.731Z,93938.16
2023-02-25T01:19:23.610Z,93998.84
2023-02-25T01:21:54.294Z,93962.63
2023-02-25T01:24:25.600Z,93995.63
2023-02-25T01:26:57.050Z,93995.16
2023-02-25T01:29:27.509Z,93973.28
2023-02-25T01:31:57.617Z,93998.88
2023-02-25T01:34:26.587Z,94009.97
2023-02-25T01:36:54.925Z,94008.38
2023-02-25T01:39:26.748Z,94001.16
2023-02-25T01:41:56.934Z,94013.16
2023-02-25T01:44:30.870Z,94006.31
2023-02-25T01:46:59.728Z,93995.09
2023-02-25T01:49:34.307Z,93888.63
2023-02-25T01:52:06.149Z,94010.06
2023-02-25T01:54:37.530Z,94008.94
2023-02-25T01:57:09.845Z,94020.03
2023-02-25T01:59:39.517Z,94016.34
2023-02-25T02:02:09.727Z,93983.81
2023-02-25T02:04:39.577Z,94028.50
2023-02-25T02:07:08.071Z,94022.97
2023-02-25T02:09:40.527Z,94003.28
2023-02-25T02:12:10.038Z,94004.03
2023-02-25T02:14:43.429Z,94017.38
2023-02-25T02:17:21.813Z,94031.97
2023-02-25T02:20:13.339Z,94030.13
2023-02-25T02:22:55.676Z,94027.41
2023-02-25T02:26:09.453Z,93906.50
2023-02-25T02:29:14.256Z,94022.06
2023-02-25T02:32:08.288Z,94020.97
2023-02-25T02:34:46.777Z,94007.34
2023-02-25T02:37:26.401Z,94022.63
2023-02-25T02:40:05.900Z,94027.63
2023-02-25T02:42:41.892Z,94002.91
2023-02-25T02:45:14.969Z,94026.94
2023-02-25T02:47:47.801Z,94010.44
2023-02-25T02:50:22.415Z,94029.81
2023-02-25T02:52:55.480Z,94013.38
2023-02-25T02:55:28.523Z,94032.25
2023-02-25T02:58:01.997Z,94030.03
2023-02-25T03:00:36.215Z,94033.72
2023-02-25T03:03:09.899Z,94013.72
2023-02-25T03:05:39.385Z,94030.56
2023-02-25T03:08:12.580Z,94028.97
2023-02-25T03:10:40.933Z,93996.69
2023-02-25T03:13:09.314Z,94011.38
2023-02-25T03:15:40.248Z,94046.50
2023-02-25T03:18:17.121Z,94060.91
2023-02-25T03:20:49.567Z,94046.91
2023-02-25T03:23:22.027Z,94044.00
2023-02-25T03:25:53.171Z,94022.66
2023-02-25T03:28:27.335Z,94020.03
2023-02-25T03:31:03.105Z,94042.09
2023-02-25T03:33:38.850Z,94033.03
2023-02-25T03:36:13.371Z,94043.19
2023-02-25T03:38:46.461Z,94029.22
2023-02-25T03:41:16.745Z,94050.25
2023-02-25T03:43:49.898Z,94028.66
2023-02-25T03:46:21.806Z,93991.84
2023-02-25T03:48:52.953Z,94051.25
2023-02-25T03:51:25.289Z,94022.28
2023-02-25T03:53:53.733Z,94029.41
2023-02-25T03:56:22.706Z,94063.22
2023-02-25T03:58:51.154Z,94070.44
2023-02-25T04:01:24.649Z,94023.06
2023-02-25T04:03:54.343Z,94046.34
2023-02-25T04:06:24.281Z,94059.94
2023-02-25T04:08:53.425Z,94091.59
2023-02-25T04:11:21.852Z,94094.25
2023-02-25T04:13:50.152Z,94079.47
2023-02-25T04:16:18.550Z,94059.84
2023-02-25T04:18:46.938Z,94077.97
2023-02-25T04:21:27.614Z,94085.63
2023-02-25T04:23:55.954Z,94054.00
2023-02-25T04:26:24.728Z,94105.91
2023-02-25T04:28:53.391Z,94095.75
2023-02-25T04:31:22.007Z,94084.28
2023-02-25T04:33:50.689Z,94068.25
2023-02-25T04:36:32.369Z,94107.19
2023-02-25T04:39:02.851Z,94108.00
2023-02-25T04:41:33.377Z,94101.03
2023-02-25T04:44:04.090Z,94092.34
2023-02-25T04:46:33.119Z,94097.13
2023-02-25T04:49:02.015Z,94092.59
2023-02-25T04:51:32.053Z,94096.09
2023-02-25T04:54:00.617Z,94097.72
2023-02-25T04:56:29.593Z,94035.16
2023-02-25T04:58:59.340Z,94096.38
2023-02-25T05:01:28.172Z,94107.94
2023-02-25T05:03:57.267Z,94072.44
2023-02-25T05:06:26.209Z,94114.75
2023-02-25T05:08:57.808Z,94073.38
2023-02-25T05:11:28.131Z,94116.63
2023-02-25T05:13:57.360Z,94048.91
2023-02-25T05:16:26.987Z,94074.84
2023-02-25T05:18:55.969Z,94108.75
2023-02-25T05:21:27.032Z,94036.22
2023-02-25T05:23:57.134Z,94105.41
2023-02-25T05:26:26.686Z,94046.38
2023-02-25T05:28:56.385Z,94091.81
2023-02-25T05:31:26.260Z,94084.13
2023-02-25T05:33:55.156Z,94109.97
2023-02-25T05:36:27.463Z,94103.06
2023-02-25T05:39:03.022Z,94116.13
2023-02-25T05:41:31.998Z,94091.28
2023-02-25T05:44:00.275Z,94099.00
2023-02-25T05:46:28.679Z,94099.06
2023-02-25T05:48:57.090Z,94046.41
2023-02-25T05:51:25.352Z,94097.00
2023-02-25T05:53:54.370Z,94102.22
2023-02-25T05:56:30.234Z,94103.84
2023-02-25T05:59:00.505Z,94072.41
2023-02-25T06:01:30.653Z,94121.22
2023-02-25T06:03:59.806Z,94090.63
2023-02-25T06:06:30.720Z,94130.91
2023-02-25T06:08:59.296Z,94131.91
2023-02-25T06:11:32.515Z,94134.56
2023-02-25T06:14:01.750Z,94141.97
2023-02-25T06:16:32.837Z,94140.84
2023-02-25T06:19:02.693Z,94148.75
2023-02-25T06:21:31.502Z,94129.97
2023-02-25T06:24:00.182Z,94153.47
2023-02-25T06:26:30.388Z,94151.31
2023-02-25T06:28:59.163Z,94169.69
2023-02-25T06:31:27.706Z,94160.91
2023-02-25T06:33:56.364Z,94185.63
2023-02-25T06:36:25.193Z,94180.59
2023-02-25T06:38:53.691Z,94192.59
2023-02-25T06:41:23.799Z,94171.06
2023-02-25T06:43:53.859Z,94190.66
2023-02-25T06:46:26.091Z,94178.88
2023-02-25T06:48:55.752Z,94156.31
2023-02-25T06:51:24.185Z,94180.28
2023-02-25T06:53:53.423Z,94171.03
2023-02-25T06:56:22.633Z,94184.81
2023-02-25T06:58:53.933Z,94184.03
2023-02-25T07:01:22.595Z,94188.94
2023-02-25T07:03:51.088Z,94192.59
2023-02-25T07:06:20.100Z,94195.25
2023-02-25T07:08:48.587Z,94201.09
2023-02-25T07:11:29.535Z,94193.72
2023-02-25T07:13:59.548Z,94193.97
2023-02-25T07:16:30.083Z,94199.84
2023-02-25T07:19:02.332Z,94196.91
2023-02-25T07:21:31.217Z,94206.00
2023-02-25T07:24:00.043Z,94205.44
2023-02-25T07:26:29.943Z,94204.84
2023-02-25T07:29:00.804Z,94205.38
2023-02-25T07:31:29.892Z,94195.75
2023-02-25T07:34:03.476Z,94217.63
2023-02-25T07:36:33.232Z,94212.84
2023-02-25T07:39:02.244Z,94200.84
2023-02-25T07:41:30.596Z,94217.44
2023-02-25T07:44:01.198Z,94225.66
2023-02-25T07:46:29.813Z,94212.97
2023-02-25T07:48:58.539Z,94218.31
2023-02-25T07:51:27.976Z,94219.41
2023-02-25T07:53:58.336Z,94162.28
2023-02-25T07:56:28.580Z,94213.78
2023-02-25T07:58:56.910Z,94206.91
2023-02-25T08:01:29.948Z,94215.00
2023-02-25T08:04:01.328Z,94218.97
2023-02-25T08:06:29.856Z,94212.06
2023-02-25T08:08:58.445Z,94218.69
2023-02-25T08:11:28.152Z,94233.09
2023-02-25T08:13:56.466Z,94205.59
2023-02-25T08:16:26.311Z,94219.41
2023-02-25T08:18:55.272Z,94214.50
2023-02-25T08:21:25.142Z,94220.03
2023-02-25T08:23:54.595Z,94208.59
2023-02-25T08:26:23.654Z,94224.34
2023-02-25T08:28:53.009Z,94222.72
2023-02-25T08:31:22.778Z,94222.19
2023-02-25T08:33:53.990Z,94221.66
2023-02-25T08:36:24.831Z,94215.88
2023-02-25T08:38:54.293Z,94200.41
2023-02-25T08:41:23.972Z,94220.13
2023-02-25T08:43:54.820Z,94215.06
2023-02-25T08:46:24.006Z,94149.81
2023-02-25T08:48:55.096Z,94214.41
2023-02-25T08:51:34.581Z,94216.03
2023-02-25T08:54:05.271Z,94232.59
2023-02-25T08:56:35.350Z,94195.38
2023-02-25T08:59:04.088Z,94232.41
2023-02-25T09:01:45.142Z,94247.03
2023-02-25T09:04:16.273Z,94258.56
2023-02-25T09:06:47.446Z,94260.88
2023-02-25T09:09:16.312Z,94259.63
2023-02-25T09:11:45.888Z,94269.22
2023-02-25T09:14:15.148Z,94266.44
2023-02-25T09:16:43.665Z,94288.53
2023-02-25T09:19:12.953Z,94311.56
2023-02-25T09:21:43.045Z,94298.78
2023-02-25T09:24:11.873Z,94302.63
2023-02-25T09:26:40.293Z,94295.53
2023-02-25T09:29:09.480Z,94308.53
2023-02-25T09:31:39.750Z,94305.69
2023-02-25T09:34:10.079Z,94283.59
2023-02-25T09:36:38.399Z,94274.56
2023-02-25T09:39:10.532Z,94307.44
2023-02-25T09:41:48.702Z,94297.63
2023-02-25T09:44:21.010Z,94304.84
2023-02-25T09:46:53.820Z,94301.84
2023-02-25T09:49:28.958Z,94309.69
2023-02-25T09:52:02.485Z,94302.56
2023-02-25T09:54:39.586Z,94313.75
2023-02-25T09:57:09.193Z,94310.88
2023-02-25T09:59:37.909Z,94319.13
2023-02-25T10:02:22.729Z,94315.16
2023-02-25T10:05:05.028Z,94318.16
2023-02-25T10:07:37.558Z,94316.56
2023-02-25T10:10:14.880Z,94325.88
2023-02-25T10:12:54.882Z,94325.97
2023-02-25T10:15:38.175Z,94327.13
2023-02-25T10:18:20.839Z,94324.19
2023-02-25T10:20:58.276Z,94327.38
2023-02-25T10:23:38.018Z,94329.78
2023-02-25T10:26:15.478Z,94296.59
2023-02-25T10:28:46.704Z,94291.13
2023-02-25T10:31:19.068Z,94333.25
2023-02-25T10:33:50.689Z,94337.19
2023-02-25T10:36:22.795Z,94339.91
2023-02-25T10:38:54.396Z,94316.00
2023-02-25T10:41:26.875Z,94332.44
2023-02-25T10:43:56.705Z,94337.81
2023-02-25T10:46:31.521Z,94343.63
2023-02-25T10:49:01.533Z,94353.44
2023-02-25T10:51:30.471Z,94336.19
2023-02-25T10:54:08.538Z,94354.34
2023-02-25T10:56:44.845Z,94340.56
2023-02-25T10:59:30.199Z,94291.53
2023-02-25T11:02:01.590Z,94343.97
2023-02-25T11:04:36.010Z,94364.66
2023-02-25T11:07:25.923Z,94359.84
2023-02-25T11:10:10.335Z,94355.56
2023-02-25T11:12:44.289Z,94354.25
2023-02-25T11:15:44.890Z,94364.88
2023-02-25T11:18:22.177Z,94357.31
2023-02-25T11:20:54.758Z,94365.28
2023-02-25T11:23:28.149Z,94368.47
2023-02-25T11:25:57.827Z,94366.81
2023-02-25T11:28:32.641Z,94369.78
2023-02-25T11:31:20.296Z,94374.09
2023-02-25T11:33:54.569Z,94368.47
2023-02-25T11:36:25.282Z,94364.72
2023-02-25T11:39:09.160Z,94371.28
2023-02-25T11:41:37.483Z,94380.09
2023-02-25T11:44:29.368Z,94380.41
2023-02-25T11:47:03.643Z,94381.09
2023-02-25T11:49:52.802Z,94387.97
2023-02-25T11:52:27.876Z,94372.09
2023-02-25T11:55:08.958Z,94391.66
2023-02-25T11:57:47.213Z,94397.41
2023-02-25T12:00:26.268Z,94408.41
2023-02-25T12:03:11.840Z,94396.06
2023-02-25T12:05:53.457Z,94383.75
2023-02-25T12:08:47.188Z,94370.66
2023-02-25T12:11:56.566Z,94376.91
2023-02-25T12:15:12.659Z,94370.63
2023-02-25T12:18:13.398Z,94379.66
2023-02-25T12:21:19.389Z,94373.84
2023-02-25T12:24:22.943Z,94370.34
2023-02-25T12:27:28.119Z,94362.75
2023-02-25T12:30:21.996Z,94374.28
2023-02-25T12:33:04.162Z,94370.19
2023-02-25T12:36:04.741Z,94373.47
2023-02-25T12:39:06.169Z,94370.53
2023-02-25T12:41:41.950Z,94362.66
2023-02-25T12:44:45.752Z,94371.28
2023-02-25T12:47:31.747Z,94388.72
2023-02-25T12:50:35.748Z,94382.41
2023-02-25T12:53:33.966Z,94352.75
2023-02-25T12:56:24.931Z,94385.31
2023-02-25T12:59:18.694Z,94388.31
2023-02-25T13:02:13.866Z,94373.47
2023-02-25T13:04:57.832Z,94385.75
2023-02-25T13:07:49.091Z,94380.91
2023-02-25T13:10:39.373Z,94386.81
2023-02-25T13:13:55.445Z,94381.06
2023-02-25T13:16:36.608Z,94389.53
2023-02-25T13:19:26.951Z,94384.72
2023-02-25T13:22:05.331Z,94351.13
2023-02-25T13:24:47.076Z,94393.53
2023-02-25T13:27:55.840Z,94402.03
2023-02-25T13:30:58.185Z,94400.03
2023-02-25T13:33:46.282Z,94402.03
2023-02-25T13:36:34.209Z,94406.41
2023-02-25T13:39:23.320Z,94372.19
2023-02-25T13:42:11.642Z,94396.59
2023-02-25T13:44:58.285Z,94406.72
2023-02-25T13:47:43.825Z,94401.66
2023-02-25T13:50:50.495Z,94400.00
2023-02-25T13:53:46.149Z,94398.81
2023-02-25T13:56:43.981Z,94418.41
2023-02-25T13:59:36.500Z,94419.03
2023-02-25T14:02:32.023Z,94428.72
2023-02-25T14:05:37.602Z,94418.44
2023-02-25T14:08:26.105Z,94428.22
2023-02-25T14:11:07.364Z,94436.19
2023-02-25T14:13:59.314Z,94412.97
2023-02-25T14:16:54.037Z,94449.19
2023-02-25T14:19:35.896Z,94445.25
2023-02-25T14:22:36.097Z,94453.41
2023-02-25T14:25:20.038Z,94464.09
2023-02-25T14:28:00.547Z,94462.91
2023-02-25T14:30:41.128Z,94472.66
2023-02-25T14:33:27.701Z,94457.22
2023-02-25T14:36:07.473Z,94426.38
2023-02-25T14:39:02.220Z,94479.84
2023-02-25T14:41:42.814Z,94485.03
2023-02-25T14:44:16.835Z,94492.50
2023-02-25T14:46:53.093Z,94491.94
2023-02-25T14:49:26.971Z,94491.44
2023-02-25T14:52:33.351Z,94501.44
2023-02-25T14:55:36.129Z,94505.34
2023-02-25T14:58:42.891Z,94500.38
2023-02-25T15:01:45.840Z,94501.81
2023-02-25T15:04:39.986Z,94509.47
2023-02-25T15:07:31.269Z,94520.34
2023-02-25T15:10:22.166Z,94516.88
2023-02-25T15:13:14.941Z,94516.22
2023-02-25T15:16:11.705Z,94535.34
2023-02-25T15:19:14.409Z,94524.72
2023-02-25T15:21:46.763Z,94525.47
2023-02-25T15:24:39.637Z,94530.56
2023-02-25T15:27:49.261Z,94535.97
2023-02-25T15:30:20.596Z,94550.72
2023-02-25T15:33:07.912Z,94566.00
2023-02-25T15:35:56.410Z,94567.38
2023-02-25T15:38:42.274Z,94569.16
2023-02-25T15:41:45.754Z,94568.84
2023-02-25T15:44:37.369Z,94588.53
2023-02-25T15:47:33.267Z,94590.50
2023-02-25T15:50:02.429Z,94587.38
2023-02-25T15:52:59.603Z,94591.06
2023-02-25T15:55:41.432Z,94605.44
2023-02-25T15:58:52.407Z,94594.75
2023-02-25T16:01:39.991Z,94612.13
2023-02-25T16:04:29.483Z,94615.34
2023-02-25T16:07:00.403Z,94611.19
2023-02-25T16:09:29.114Z,94627.66
2023-02-25T16:12:06.736Z,94634.66
2023-02-25T16:14:38.197Z,94637.56
2023-02-25T16:17:15.631Z,94631.56
2023-02-25T16:19:47.542Z,94619.13
2023-02-25T16:22:19.415Z,94647.88
2023-02-25T16:24:50.708Z,94658.25
2023-02-25T16:27:33.461Z,94660.00
2023-02-25T16:30:11.209Z,94667.13
2023-02-25T16:32:49.405Z,94637.31
2023-02-25T16:35:25.958Z,94677.47
2023-02-25T16:38:04.046Z,94569.78
2023-02-25T16:40:36.391Z,94688.19
2023-02-25T16:43:07.307Z,94693.59
2023-02-25T16:45:45.693Z,94669.75
2023-02-25T16:48:19.272Z,94664.47
2023-02-25T16:50:48.680Z,94701.38
2023-02-25T16:53:20.882Z,94705.44
2023-02-25T16:55:49.703Z,94707.72
2023-02-25T16:58:25.497Z,94707.63
2023-02-25T17:00:55.486Z,94709.22
2023-02-25T17:03:26.090Z,94712.91
2023-02-25T17:06:04.169Z,94719.34
2023-02-25T17:08:32.494Z,94716.00
2023-02-25T17:11:02.860Z,94678.25
2023-02-25T17:13:35.787Z,94666.28
2023-02-25T17:16:06.828Z,94680.75
2023-02-25T17:18:40.235Z,94731.44
2023-02-25T17:21:19.580Z,94738.38
2023-02-25T17:23:48.245Z,94735.88
2023-02-25T17:26:17.891Z,94742.25
2023-02-25T17:28:50.890Z,94752.06
2023-02-25T17:31:20.915Z,94749.66
2023-02-25T17:33:52.882Z,94753.91
2023-02-25T17:36:26.394Z,94759.63
2023-02-25T17:38:56.894Z,94770.50
2023-02-25T17:41:26.553Z,94772.28
2023-02-25T17:43:56.476Z,94787.13
2023-02-25T17:46:29.734Z,94774.94
2023-02-25T17:49:00.484Z,94775.41
2023-02-25T17:51:33.312Z,94785.63
2023-02-25T17:54:06.629Z,94724.66
2023-02-25T17:56:36.746Z,94786.94
2023-02-25T17:59:08.616Z,94799.22
2023-02-25T18:01:59.200Z,94789.81
2023-02-25T18:04:35.899Z,94796.84
2023-02-25T18:07:22.385Z,94790.53
2023-02-25T18:09:51.602Z,94794.50
2023-02-25T18:12:25.905Z,94794.00
2023-02-25T18:14:58.827Z,94798.63
2023-02-25T18:17:29.496Z,94800.41
2023-02-25T18:20:00.330Z,94797.81
2023-02-25T18:22:35.231Z,94811.84
2023-02-25T18:25:07.845Z,94806.75
2023-02-25T18:27:38.140Z,94805.94
2023-02-25T18:30:20.569Z,94798.34
2023-02-25T18:32:49.307Z,94803.88
2023-02-25T18:35:18.791Z,94810.50
2023-02-25T18:37:48.859Z,94813.75
2023-02-25T18:40:20.623Z,94811.09
2023-02-25T18:42:48.928Z,94800.66
2023-02-25T18:45:21.232Z,94812.84
2023-02-25T18:47:50.645Z,94814.44
2023-02-25T18:50:20.247Z,94817.22
2023-02-25T18:52:48.674Z,94810.06
2023-02-25T18:55:19.470Z,94823.44
2023-02-25T18:57:48.072Z,94828.78
2023-02-25T19:00:20.885Z,94838.56
2023-02-25T19:02:52.317Z,94832.97
2023-02-25T19:05:22.826Z,94837.59
2023-02-25T19:07:51.495Z,94822.25
2023-02-25T19:10:22.581Z,94833.34
2023-02-25T19:12:52.248Z,94838.25
2023-02-25T19:15:23.184Z,94840.44
2023-02-25T19:17:51.490Z,94839.56
2023-02-25T19:20:21.533Z,94834.72
2023-02-25T19:22:52.032Z,94849.56
2023-02-25T19:25:23.888Z,94790.69
2023-02-25T19:27:53.176Z,94852.13
2023-02-25T19:30:25.273Z,94853.97
2023-02-25T19:32:53.880Z,94850.38
2023-02-25T19:35:22.214Z,94857.03
2023-02-25T19:37:50.566Z,94863.19
2023-02-25T19:40:19.125Z,94833.00
2023-02-25T19:42:48.969Z,94869.41
2023-02-25T19:45:19.290Z,94854.13
2023-02-25T19:47:50.090Z,94877.47
2023-02-25T19:50:20.510Z,94883.44
2023-02-25T19:52:48.984Z,94891.16
2023-02-25T19:55:17.684Z,94889.72
2023-02-25T19:57:45.997Z,94907.06
2023-02-25T20:00:16.994Z,94904.22
2023-02-25T20:02:45.786Z,94909.50
2023-02-25T20:05:15.903Z,94907.13
2023-02-25T20:07:44.490Z,94884.41
2023-02-25T20:10:14.195Z,94907.47
2023-02-25T20:12:43.599Z,94899.78
2023-02-25T20:15:14.945Z,94907.88
2023-02-25T20:17:44.350Z,94910.50
2023-02-25T20:20:16.554Z,94915.97
2023-02-25T20:22:45.158Z,94918.09
2023-02-25T20:25:15.248Z,94871.84
2023-02-25T20:27:44.197Z,94919.16
2023-02-25T20:30:15.207Z,94920.94
2023-02-25T20:32:44.528Z,94898.75
2023-02-25T20:35:18.654Z,94933.09
2023-02-25T20:38:14.705Z,94926.94
2023-02-25T20:40:43.308Z,94931.41
2023-02-25T20:43:12.596Z,94933.81
2023-02-25T20:45:41.487Z,94930.97
2023-02-25T20:48:27.653Z,94940.44
2023-02-25T20:50:57.987Z,94945.00
2023-02-25T20:53:26.717Z,94937.88
2023-02-25T20:55:58.199Z,94947.41
2023-02-25T20:58:26.554Z,94942.75
2023-02-25T21:00:54.971Z,94950.56
2023-02-25T21:03:23.266Z,94948.25
2023-02-25T21:05:51.517Z,94937.69
2023-02-25T21:08:21.227Z,94947.00
2023-02-25T21:10:50.043Z,94949.94
2023-02-25T21:13:18.357Z,94950.31
2023-02-25T21:15:46.630Z,94949.94
2023-02-25T21:18:14.940Z,94893.66
2023-02-25T21:20:43.361Z,94951.97
2023-02-25T21:23:11.631Z,94951.88
2023-02-25T21:25:41.354Z,94956.09
2023-02-25T21:28:09.645Z,94958.13
2023-02-25T21:30:39.443Z,94964.38
2023-02-25T21:33:08.435Z,94956.34
2023-02-25T21:35:36.865Z,94966.19
2023-02-25T21:38:05.332Z,94973.16
2023-02-25T21:40:34.367Z,94911.31
2023-02-25T21:43:04.627Z,94975.22
2023-02-25T21:45:32.983Z,94995.78
2023-02-25T21:48:01.566Z,95004.59
2023-02-25T21:50:29.959Z,95002.00
2023-02-25T21:52:58.431Z,95010.19
2023-02-25T21:55:27.024Z,95011.78
2023-02-25T21:57:55.315Z,95007.06
2023-02-25T22:00:25.359Z,95012.38
2023-02-25T22:02:53.906Z,95010.38
2023-02-25T22:05:22.207Z,95010.78
2023-02-25T22:07:50.969Z,95011.41
2023-02-25T22:10:21.280Z,95016.09
2023-02-25T22:12:50.467Z,95020.97
2023-02-25T22:15:18.845Z,95021.75
2023-02-25T22:17:48.667Z,95020.88
2023-02-25T22:20:17.304Z,95017.19
2023-02-25T22:22:45.618Z,95006.59
2023-02-25T22:25:13.920Z,95016.13
2023-02-25T22:27:42.314Z,95008.56
2023-02-25T22:30:11.616Z,95012.63
2023-02-25T22:32:39.977Z,95028.66
2023-02-25T22:35:10.603Z,95015.47
2023-02-25T22:37:38.899Z,95005.53
2023-02-25T22:40:08.606Z,95006.53
2023-02-25T22:42:36.958Z,95018.09
2023-02-25T22:45:05.762Z,95005.22
2023-02-25T22:47:34.354Z,95012.56
2023-02-25T22:50:02.594Z,95012.56
2023-02-25T22:52:32.321Z,94980.06
2023-02-25T22:55:00.617Z,95028.41
2023-02-25T22:57:28.873Z,95019.00
2023-02-25T22:59:57.208Z,95027.59
2023-02-25T23:02:26.163Z,95031.47
2023-02-25T23:04:54.461Z,95022.69
2023-02-25T23:07:23.285Z,95033.50
2023-02-25T23:09:53.046Z,95027.63
2023-02-25T23:12:21.481Z,95009.59
2023-02-25T23:14:50.143Z,95036.50
2023-02-25T23:17:18.575Z,95036.72
2023-02-25T23:19:46.863Z,95042.16
2023-02-25T23:22:23.477Z,95033.25
2023-02-25T23:24:53.165Z,95044.97
2023-02-25T23:27:21.461Z,95041.78
2023-02-25T23:29:49.767Z,95044.84
2023-02-25T23:32:18.135Z,95013.28
2023-02-25T23:34:48.866Z,95048.06
2023-02-25T23:37:17.441Z,95009.03
2023-02-25T23:39:45.985Z,95050.72
2023-02-25T23:42:15.882Z,95050.72
2023-02-25T23:44:44.239Z,95054.97
2023-02-25T23:47:12.528Z,95053.16
2023-02-25T23:49:40.861Z,95052.34
2023-02-25T23:52:09.524Z,95051.50
2023-02-25T23:54:37.839Z,95045.38
2023-02-25T23:57:06.818Z,94986.75
2023-02-25T23:59:36.901Z,95049.91
